createdAt,value
2022-12-11T00:00:27.550Z,43.63
2022-12-11T00:02:54.848Z,42.53
2022-12-11T00:05:22.068Z,43.47
2022-12-11T00:07:48.901Z,44.33
2022-12-11T00:10:15.696Z,49.27
2022-12-11T00:12:42.855Z,42.63
2022-12-11T00:15:10.414Z,43.67
2022-12-11T00:17:37.777Z,44.30
2022-12-11T00:20:05.134Z,51.03
2022-12-11T00:22:31.997Z,46.87
2022-12-11T00:24:59.119Z,44.40
2022-12-11T00:27:26.035Z,49.10
2022-12-11T00:29:53.131Z,50.27
2022-12-11T00:32:20.280Z,47.37
2022-12-11T00:34:47.385Z,48.13
2022-12-11T00:37:14.291Z,49.97
2022-12-11T00:39:41.491Z,48.43
2022-12-11T00:42:09.019Z,45.20
2022-12-11T00:44:36.225Z,45.00
2022-12-11T00:47:03.715Z,44.53
2022-12-11T00:49:30.884Z,48.93
2022-12-11T00:51:57.963Z,51.50
2022-12-11T00:54:25.115Z,52.93
2022-12-11T00:56:52.242Z,49.47
2022-12-11T00:59:19.532Z,46.60
2022-12-11T01:01:46.732Z,48.07
2022-12-11T01:04:13.923Z,45.20
2022-12-11T01:06:41.117Z,46.17
2022-12-11T01:09:26.887Z,44.13
2022-12-11T01:11:54.029Z,44.90
2022-12-11T01:14:20.753Z,48.10
2022-12-11T01:16:47.979Z,48.23
2022-12-11T01:19:15.307Z,49.83
2022-12-11T01:21:42.025Z,52.67
2022-12-11T01:24:08.861Z,54.90
2022-12-11T01:26:36.033Z,54.93
2022-12-11T01:29:03.207Z,63.53
2022-12-11T01:31:30.377Z,51.60
2022-12-11T01:33:57.501Z,47.70
2022-12-11T01:36:24.842Z,51.20
2022-12-11T01:38:54.312Z,47.97
2022-12-11T01:41:21.660Z,50.10
2022-12-11T01:44:01.865Z,51.03
2022-12-11T01:46:29.790Z,50.90
2022-12-11T01:48:57.462Z,53.67
2022-12-11T01:51:24.965Z,53.40
2022-12-11T01:54:00.642Z,49.40
2022-12-11T01:56:30.162Z,54.30
2022-12-11T01:59:00.345Z,51.63
2022-12-11T02:01:51.026Z,58.87
2022-12-11T02:04:19.766Z,59.73
2022-12-11T02:06:49.015Z,65.63
2022-12-11T02:09:23.684Z,65.97
2022-12-11T02:12:10.714Z,63.80
2022-12-11T02:15:20.480Z,66.23
2022-12-11T02:17:56.373Z,68.73
2022-12-11T02:20:55.628Z,75.73
2022-12-11T02:23:31.658Z,73.10
2022-12-11T02:26:21.566Z,78.23
2022-12-11T02:29:17.089Z,82.30
2022-12-11T02:32:15.570Z,75.50
2022-12-11T02:34:49.371Z,101.07
2022-12-11T02:37:23.252Z,84.13
2022-12-11T02:39:53.656Z,84.70
2022-12-11T02:42:21.821Z,85.67
2022-12-11T02:44:50.703Z,93.73
2022-12-11T02:47:19.981Z,97.53
2022-12-11T02:49:50.069Z,96.20
2022-12-11T02:52:21.707Z,88.77
2022-12-11T02:54:50.861Z,97.57
2022-12-11T02:57:57.596Z,105.23
2022-12-11T03:00:24.722Z,108.70
2022-12-11T03:02:51.676Z,97.90
2022-12-11T03:05:18.476Z,90.10
2022-12-11T03:07:45.513Z,99.93
2022-12-11T03:10:15.550Z,107.47
2022-12-11T03:12:47.034Z,113.97
2022-12-11T03:15:20.333Z,111.37
2022-12-11T03:17:47.453Z,113.37
2022-12-11T03:20:44.030Z,116.20
2022-12-11T03:23:32.260Z,109.27
2022-12-11T03:26:04.592Z,109.43
2022-12-11T03:28:37.163Z,94.13
2022-12-11T03:31:09.527Z,123.57
2022-12-11T03:33:40.466Z,115.73
2022-12-11T03:36:19.306Z,98.00
2022-12-11T03:39:08.026Z,103.17
2022-12-11T03:41:37.759Z,94.60
2022-12-11T03:44:04.802Z,104.13
2022-12-11T03:46:35.459Z,100.77
2022-12-11T03:49:16.418Z,105.23
2022-12-11T03:51:46.672Z,95.80
2022-12-11T03:54:13.833Z,115.67
2022-12-11T03:56:43.003Z,112.33
2022-12-11T03:59:09.952Z,111.63
2022-12-11T04:01:37.215Z,103.83
2022-12-11T04:04:04.314Z,117.73
2022-12-11T04:06:31.483Z,113.37
2022-12-11T04:08:58.177Z,130.10
2022-12-11T04:11:34.437Z,110.90
2022-12-11T04:14:28.989Z,112.77
2022-12-11T04:16:56.649Z,129.63
2022-12-11T04:19:42.698Z,137.00
2022-12-11T04:22:34.602Z,127.70
2022-12-11T04:25:02.718Z,123.07
2022-12-11T04:27:48.519Z,143.23
2022-12-11T04:30:21.513Z,143.40
2022-12-11T04:32:48.757Z,135.00
2022-12-11T04:35:15.941Z,141.37
2022-12-11T04:37:43.049Z,137.23
2022-12-11T04:40:12.947Z,140.37
2022-12-11T04:42:39.731Z,131.47
2022-12-11T04:45:08.376Z,131.73
2022-12-11T04:47:39.536Z,138.17
2022-12-11T04:50:08.240Z,133.20
2022-12-11T04:52:34.975Z,150.67
2022-12-11T04:55:02.063Z,136.53
2022-12-11T04:57:28.779Z,145.40
2022-12-11T04:59:55.950Z,161.03
2022-12-11T05:02:23.145Z,139.47
2022-12-11T05:04:49.999Z,154.60
2022-12-11T05:07:17.080Z,150.77
2022-12-11T05:09:43.928Z,141.87
2022-12-11T05:12:10.662Z,143.27
2022-12-11T05:14:37.779Z,153.70
2022-12-11T05:17:04.892Z,140.43
2022-12-11T05:19:31.635Z,148.60
2022-12-11T05:21:58.773Z,173.63
2022-12-11T05:24:25.524Z,169.40
2022-12-11T05:26:52.288Z,165.60
2022-12-11T05:29:19.486Z,135.40
2022-12-11T05:31:46.692Z,173.93
2022-12-11T05:34:15.179Z,160.77
2022-12-11T05:36:42.337Z,146.37
2022-12-11T05:39:09.630Z,151.97
2022-12-11T05:41:36.808Z,141.07
2022-12-11T05:44:03.886Z,155.27
2022-12-11T05:46:31.236Z,156.07
2022-12-11T05:49:00.479Z,126.97
2022-12-11T05:51:28.186Z,119.83
2022-12-11T05:53:56.763Z,123.00
2022-12-11T05:56:26.391Z,120.70
2022-12-11T05:58:53.920Z,127.63
2022-12-11T06:01:28.878Z,113.43
2022-12-11T06:03:56.599Z,134.73
2022-12-11T06:06:24.556Z,138.67
2022-12-11T06:08:52.688Z,119.40
2022-12-11T06:11:23.973Z,128.00
2022-12-11T06:13:52.017Z,140.47
2022-12-11T06:16:19.426Z,147.53
2022-12-11T06:18:46.619Z,130.67
2022-12-11T06:21:14.412Z,135.27
2022-12-11T06:23:41.761Z,148.70
2022-12-11T06:26:09.399Z,155.80
2022-12-11T06:28:36.921Z,138.50
2022-12-11T06:31:04.133Z,141.27
2022-12-11T06:33:31.252Z,140.40
2022-12-11T06:36:11.927Z,158.07
2022-12-11T06:38:38.858Z,160.43
2022-12-11T06:41:07.039Z,134.93
2022-12-11T06:43:35.809Z,138.10
2022-12-11T06:46:06.545Z,149.03
2022-12-11T06:48:33.763Z,154.87
2022-12-11T06:51:00.932Z,158.03
2022-12-11T06:53:28.124Z,152.70
2022-12-11T06:55:55.242Z,156.70
2022-12-11T06:58:21.969Z,147.60
2022-12-11T07:00:49.156Z,138.40
2022-12-11T07:03:16.299Z,138.47
2022-12-11T07:05:43.048Z,124.73
2022-12-11T07:08:10.270Z,120.37
2022-12-11T07:10:37.454Z,104.73
2022-12-11T07:13:04.231Z,99.23
2022-12-11T07:15:30.912Z,94.83
2022-12-11T07:17:57.643Z,81.50
2022-12-11T07:20:24.789Z,73.63
2022-12-11T07:22:51.536Z,72.97
2022-12-11T07:25:18.612Z,77.63
2022-12-11T07:27:45.786Z,67.43
2022-12-11T07:30:13.111Z,69.83
2022-12-11T07:32:39.934Z,76.23
2022-12-11T07:35:07.041Z,73.60
2022-12-11T07:37:34.170Z,71.43
2022-12-11T07:40:01.312Z,67.73
2022-12-11T07:42:28.934Z,71.10
2022-12-11T07:44:56.085Z,65.33
2022-12-11T07:47:23.214Z,69.57
2022-12-11T07:49:50.352Z,66.40
2022-12-11T07:52:17.565Z,69.33
2022-12-11T07:54:44.287Z,64.77
2022-12-11T07:57:14.060Z,78.03
2022-12-11T07:59:41.927Z,63.70
2022-12-11T08:02:11.923Z,63.50
2022-12-11T08:04:39.242Z,69.07
2022-12-11T08:07:06.036Z,64.57
2022-12-11T08:09:33.228Z,70.17
2022-12-11T08:11:59.991Z,69.80
2022-12-11T08:14:27.189Z,65.63
2022-12-11T08:16:54.419Z,74.20
2022-12-11T08:19:21.721Z,72.80
2022-12-11T08:21:48.875Z,62.67
2022-12-11T08:24:20.145Z,63.23
2022-12-11T08:26:48.313Z,58.23
2022-12-11T08:29:15.493Z,60.30
2022-12-11T08:31:42.511Z,70.20
2022-12-11T08:34:13.757Z,71.27
2022-12-11T08:36:41.369Z,63.27
2022-12-11T08:39:08.533Z,57.57
2022-12-11T08:41:35.356Z,61.97
2022-12-11T08:44:02.131Z,63.37
2022-12-11T08:46:32.939Z,57.83
2022-12-11T08:49:00.052Z,61.60
2022-12-11T08:51:28.714Z,61.57
2022-12-11T08:53:57.256Z,60.50
2022-12-11T08:56:24.962Z,64.93
2022-12-11T08:58:52.572Z,59.43
2022-12-11T09:01:22.923Z,62.50
2022-12-11T09:03:51.236Z,61.83
2022-12-11T09:06:21.025Z,62.13
2022-12-11T09:08:52.590Z,60.23
2022-12-11T09:11:32.584Z,59.37
2022-12-11T09:14:06.891Z,55.30
2022-12-11T09:16:37.739Z,59.37
2022-12-11T09:19:05.040Z,57.87
2022-12-11T09:21:31.745Z,58.80
2022-12-11T09:24:00.824Z,54.73
2022-12-11T09:26:29.266Z,54.20
2022-12-11T09:28:56.768Z,55.47
2022-12-11T09:31:25.285Z,53.53
2022-12-11T09:33:54.646Z,60.43
2022-12-11T09:36:21.853Z,52.93
2022-12-11T09:38:48.886Z,49.33
2022-12-11T09:41:21.609Z,51.30
2022-12-11T09:44:17.852Z,41.97
2022-12-11T09:46:46.620Z,60.90
2022-12-11T09:49:28.872Z,56.37
2022-12-11T09:52:21.320Z,52.63
2022-12-11T09:54:55.609Z,56.23
2022-12-11T09:57:48.361Z,47.70
2022-12-11T10:00:31.525Z,58.63
2022-12-11T10:03:18.839Z,55.60
2022-12-11T10:06:25.680Z,43.70
2022-12-11T10:09:15.555Z,60.60
2022-12-11T10:11:54.468Z,63.77
2022-12-11T10:14:36.112Z,46.10
2022-12-11T10:17:10.982Z,47.37
2022-12-11T10:19:39.924Z,43.37
2022-12-11T10:22:17.418Z,52.73
2022-12-11T10:25:12.521Z,50.07
2022-12-11T10:27:40.936Z,50.53
2022-12-11T10:30:14.307Z,42.83
2022-12-11T10:33:11.833Z,47.03
2022-12-11T10:35:57.250Z,48.67
2022-12-11T10:38:38.901Z,44.17
2022-12-11T10:41:12.400Z,64.03
2022-12-11T10:43:40.330Z,50.77
2022-12-11T10:46:33.156Z,45.73
2022-12-11T10:49:01.447Z,52.43
2022-12-11T10:51:31.289Z,53.10
2022-12-11T10:54:24.846Z,51.57
2022-12-11T10:56:51.767Z,50.07
2022-12-11T10:59:34.162Z,58.30
2022-12-11T11:02:01.431Z,43.30
2022-12-11T11:04:38.001Z,49.20
2022-12-11T11:07:19.515Z,46.77
2022-12-11T11:09:46.646Z,46.60
2022-12-11T11:12:40.954Z,52.60
2022-12-11T11:15:29.288Z,48.30
2022-12-11T11:18:03.488Z,49.07
2022-12-11T11:20:33.906Z,44.37
2022-12-11T11:23:03.749Z,48.37
2022-12-11T11:25:33.011Z,49.00
2022-12-11T11:28:06.396Z,58.80
2022-12-11T11:30:38.956Z,48.93
2022-12-11T11:33:19.842Z,51.60
2022-12-11T11:35:55.461Z,45.47
2022-12-11T11:39:11.502Z,42.20
2022-12-11T11:41:55.963Z,51.40
2022-12-11T11:44:31.701Z,41.17
2022-12-11T11:47:10.753Z,44.00
2022-12-11T11:49:43.680Z,43.67
2022-12-11T11:52:13.470Z,38.17
2022-12-11T11:54:52.728Z,42.63
2022-12-11T11:57:28.883Z,46.80
2022-12-11T12:00:09.940Z,39.20
2022-12-11T12:02:37.455Z,33.90
2022-12-11T12:05:04.684Z,36.33
2022-12-11T12:07:31.853Z,42.13
2022-12-11T12:10:28.729Z,49.27
2022-12-11T12:13:30.115Z,42.83
2022-12-11T12:15:59.468Z,38.27
2022-12-11T12:19:04.853Z,44.40
2022-12-11T12:21:36.422Z,45.63
2022-12-11T12:24:15.167Z,41.93
2022-12-11T12:27:43.331Z,39.83
2022-12-11T12:30:11.761Z,47.67
2022-12-11T12:32:55.092Z,43.70
2022-12-11T12:35:37.235Z,52.53
2022-12-11T12:38:13.156Z,47.97
2022-12-11T12:40:42.633Z,38.33
2022-12-11T12:43:42.972Z,52.53
2022-12-11T12:46:10.357Z,38.53
2022-12-11T12:48:37.422Z,50.23
2022-12-11T12:51:05.713Z,51.00
2022-12-11T12:53:36.738Z,42.07
2022-12-11T12:56:05.312Z,42.47
2022-12-11T12:58:35.436Z,42.80
2022-12-11T13:01:21.919Z,40.17
2022-12-11T13:03:56.512Z,40.87
2022-12-11T13:06:34.963Z,50.00
2022-12-11T13:09:13.421Z,39.90
2022-12-11T13:11:40.666Z,38.40
2022-12-11T13:14:07.876Z,43.43
2022-12-11T13:16:43.878Z,45.07
2022-12-11T13:19:26.274Z,39.30
2022-12-11T13:22:06.668Z,39.60
2022-12-11T13:24:34.458Z,45.73
2022-12-11T13:27:24.527Z,44.47
2022-12-11T13:29:51.366Z,45.67
2022-12-11T13:32:18.580Z,44.10
2022-12-11T13:34:53.663Z,41.13
2022-12-11T13:37:33.124Z,39.80
2022-12-11T13:40:03.776Z,41.53
2022-12-11T13:42:48.002Z,41.87
2022-12-11T13:45:38.014Z,35.27
2022-12-11T13:48:18.390Z,41.60
2022-12-11T13:50:48.134Z,40.50
2022-12-11T13:53:17.260Z,37.40
2022-12-11T13:55:45.333Z,36.63
2022-12-11T13:58:23.064Z,34.10
2022-12-11T14:01:05.301Z,36.00
2022-12-11T14:03:55.074Z,34.63
2022-12-11T14:06:23.957Z,34.67
2022-12-11T14:08:53.723Z,34.97
2022-12-11T14:11:29.873Z,32.67
2022-12-11T14:13:59.372Z,30.83
2022-12-11T14:16:27.514Z,35.17
2022-12-11T14:18:58.414Z,33.87
2022-12-11T14:21:26.082Z,34.37
2022-12-11T14:24:03.470Z,36.33
2022-12-11T14:26:35.505Z,36.60
2022-12-11T14:29:03.020Z,35.93
2022-12-11T14:31:41.867Z,37.10
2022-12-11T14:34:19.002Z,36.67
2022-12-11T14:36:48.013Z,30.17
2022-12-11T14:39:24.884Z,34.97
2022-12-11T14:42:00.907Z,38.77
2022-12-11T14:44:30.876Z,35.57
2022-12-11T14:47:17.055Z,34.47
2022-12-11T14:50:03.059Z,35.03
2022-12-11T14:52:40.840Z,33.43
2022-12-11T14:55:10.582Z,30.80
2022-12-11T14:57:42.503Z,33.53
2022-12-11T15:00:31.080Z,36.47
2022-12-11T15:03:06.819Z,35.30
2022-12-11T15:05:40.535Z,27.17
2022-12-11T15:08:10.426Z,31.70
2022-12-11T15:10:55.482Z,33.47
2022-12-11T15:13:25.729Z,33.50
2022-12-11T15:15:54.668Z,29.27
2022-12-11T15:18:30.035Z,35.73
2022-12-11T15:21:03.650Z,28.70
2022-12-11T15:26:16.575Z,37.47
2022-12-11T15:28:43.738Z,34.77
2022-12-11T15:31:27.252Z,37.27
2022-12-11T15:33:57.231Z,44.43
2022-12-11T15:36:31.563Z,40.40
2022-12-11T15:38:59.150Z,42.07
2022-12-11T15:41:28.200Z,39.17
2022-12-11T15:43:59.165Z,45.43
2022-12-11T15:46:26.802Z,47.17
2022-12-11T15:48:55.353Z,42.30
2022-12-11T15:51:23.196Z,38.00
2022-12-11T15:53:53.224Z,37.93
2022-12-11T15:56:20.565Z,38.30
2022-12-11T15:58:48.375Z,37.63
2022-12-11T16:01:15.750Z,37.33
2022-12-11T16:03:43.050Z,41.53
2022-12-11T16:06:13.380Z,45.33
2022-12-11T16:08:40.216Z,45.80
2022-12-11T16:11:07.421Z,46.13
2022-12-11T16:13:34.665Z,41.00
2022-12-11T16:16:01.897Z,38.20
2022-12-11T16:18:29.095Z,41.00
2022-12-11T16:20:56.377Z,43.70
2022-12-11T16:23:23.704Z,45.20
2022-12-11T16:25:50.827Z,45.67
2022-12-11T16:28:21.562Z,43.47
2022-12-11T16:30:49.183Z,42.20
2022-12-11T16:33:18.123Z,40.70
2022-12-11T16:35:45.394Z,57.33
2022-12-11T16:38:13.600Z,54.33
2022-12-11T16:40:41.760Z,42.97
2022-12-11T16:43:08.607Z,40.43
2022-12-11T16:45:36.969Z,43.50
2022-12-11T16:48:05.743Z,44.93
2022-12-11T16:50:34.149Z,46.93
2022-12-11T16:53:01.641Z,42.73
2022-12-11T16:55:28.531Z,44.50
2022-12-11T16:57:55.465Z,45.97
2022-12-11T17:00:24.140Z,41.17
2022-12-11T17:02:51.528Z,41.53
2022-12-11T17:05:18.574Z,43.03
2022-12-11T17:07:46.026Z,39.17
2022-12-11T17:10:13.270Z,45.43
2022-12-11T17:12:40.727Z,39.60
2022-12-11T17:15:07.847Z,43.20
2022-12-11T17:17:34.708Z,57.17
2022-12-11T17:20:02.013Z,50.47
2022-12-11T17:22:29.621Z,48.77
2022-12-11T17:24:56.498Z,43.57
2022-12-11T17:27:23.805Z,52.30
2022-12-11T17:29:51.234Z,47.70
2022-12-11T17:32:19.279Z,53.50
2022-12-11T17:34:48.209Z,53.40
2022-12-11T17:37:16.461Z,52.07
2022-12-11T17:39:43.550Z,51.60
2022-12-11T17:42:10.437Z,51.47
2022-12-11T17:44:38.625Z,50.40
2022-12-11T17:47:11.031Z,51.23
2022-12-11T17:49:39.771Z,54.30
2022-12-11T17:52:07.170Z,53.13
2022-12-11T17:54:35.558Z,47.63
2022-12-11T17:57:04.206Z,57.33
2022-12-11T17:59:32.134Z,51.47
2022-12-11T18:02:00.009Z,41.80
2022-12-11T18:04:31.338Z,54.50
2022-12-11T18:06:59.777Z,52.57
2022-12-11T18:09:27.143Z,56.87
2022-12-11T18:11:55.390Z,53.57
2022-12-11T18:14:23.919Z,53.27
2022-12-11T18:16:52.779Z,46.63
2022-12-11T18:19:23.395Z,42.20
2022-12-11T18:21:50.690Z,52.73
2022-12-11T18:24:19.044Z,48.97
2022-12-11T18:26:46.280Z,50.57
2022-12-11T18:29:13.455Z,42.00
2022-12-11T18:31:42.832Z,43.63
2022-12-11T18:34:10.959Z,46.80
2022-12-11T18:36:38.112Z,46.63
2022-12-11T18:39:05.293Z,49.57
2022-12-11T18:41:32.513Z,44.27
2022-12-11T18:44:08.125Z,46.23
2022-12-11T18:46:36.827Z,47.57
2022-12-11T18:49:03.704Z,46.23
2022-12-11T18:51:31.014Z,48.70
2022-12-11T18:53:58.053Z,46.40
2022-12-11T18:56:24.989Z,53.50
2022-12-11T18:58:52.555Z,54.03
2022-12-11T19:01:22.535Z,48.20
2022-12-11T19:03:51.363Z,46.80
2022-12-11T19:06:21.121Z,44.43
2022-12-11T19:08:48.485Z,58.03
2022-12-11T19:11:18.223Z,55.23
2022-12-11T19:16:38.883Z,49.23
2022-12-11T19:19:16.616Z,51.23
2022-12-11T19:21:44.315Z,49.80
2022-12-11T19:24:15.295Z,52.40
2022-12-11T19:26:42.651Z,46.47
2022-12-11T19:29:09.986Z,51.13
2022-12-11T19:31:37.136Z,54.93
2022-12-11T19:34:04.372Z,47.50
2022-12-11T19:36:33.644Z,48.17
2022-12-11T19:39:02.524Z,54.03
2022-12-11T19:41:31.633Z,57.03
2022-12-11T19:43:59.724Z,56.70
2022-12-11T19:46:27.373Z,56.27
2022-12-11T19:48:57.094Z,77.03
2022-12-11T19:51:28.565Z,62.17
2022-12-11T19:53:56.840Z,55.93
2022-12-11T19:56:24.510Z,63.50
2022-12-11T19:58:51.777Z,60.43
2022-12-11T20:01:24.859Z,58.53
2022-12-11T20:03:52.986Z,53.77
2022-12-11T20:06:20.134Z,59.80
2022-12-11T20:08:47.662Z,56.20
2022-12-11T20:11:18.363Z,66.20
2022-12-11T20:13:47.064Z,64.20
2022-12-11T20:16:15.938Z,64.13
2022-12-11T20:18:43.258Z,57.37
2022-12-11T20:21:14.600Z,60.93
2022-12-11T20:23:42.904Z,61.50
2022-12-11T20:26:15.427Z,53.63
2022-12-11T20:28:42.982Z,59.13
2022-12-11T20:31:19.556Z,56.23
2022-12-11T20:33:48.851Z,63.43
2022-12-11T20:36:17.792Z,58.53
2022-12-11T20:38:45.123Z,63.93
2022-12-11T20:41:14.319Z,63.73
2022-12-11T20:43:42.466Z,61.20
2022-12-11T20:46:11.379Z,61.40
2022-12-11T20:48:39.357Z,67.33
2022-12-11T20:51:08.065Z,57.23
2022-12-11T20:53:35.814Z,59.37
2022-12-11T20:56:08.462Z,61.77
2022-12-11T20:58:36.162Z,62.13
2022-12-11T21:01:03.410Z,59.03
2022-12-11T21:03:35.386Z,72.87
2022-12-11T21:06:04.395Z,69.83
2022-12-11T21:08:31.598Z,73.60
2022-12-11T21:10:59.542Z,62.80
2022-12-11T21:13:27.449Z,77.10
2022-12-11T21:15:56.920Z,81.07
2022-12-11T21:18:24.026Z,69.80
2022-12-11T21:20:56.165Z,73.57
2022-12-11T21:23:23.012Z,67.07
2022-12-11T21:25:51.873Z,73.60
2022-12-11T21:28:19.154Z,72.37
2022-12-11T21:30:46.634Z,82.13
2022-12-11T21:33:13.803Z,65.97
2022-12-11T21:35:41.012Z,69.23
2022-12-11T21:38:08.214Z,61.47
2022-12-11T21:40:35.249Z,75.20
2022-12-11T21:43:03.744Z,75.07
2022-12-11T21:46:00.444Z,80.43
2022-12-11T21:48:22.705Z,68.87
2022-12-11T21:50:49.469Z,60.30
2022-12-11T21:53:16.273Z,69.83
2022-12-11T21:55:43.155Z,67.33
2022-12-11T21:58:10.447Z,65.33
2022-12-11T22:00:39.097Z,59.50
2022-12-11T22:03:06.833Z,66.50
2022-12-11T22:05:33.944Z,70.67
2022-12-11T22:08:01.164Z,59.20
2022-12-11T22:10:29.067Z,57.53
2022-12-11T22:12:56.176Z,60.40
2022-12-11T22:15:23.457Z,57.67
2022-12-11T22:17:50.681Z,65.60
2022-12-11T22:20:18.206Z,73.07
2022-12-11T22:22:47.076Z,75.90
2022-12-11T22:25:14.508Z,75.03
2022-12-11T22:27:41.638Z,63.10
2022-12-11T22:30:09.115Z,60.80
2022-12-11T22:32:36.351Z,56.90
2022-12-11T22:35:04.028Z,72.47
2022-12-11T22:37:30.959Z,68.33
2022-12-11T22:39:58.223Z,58.27
2022-12-11T22:42:25.413Z,57.90
2022-12-11T22:44:52.594Z,68.80
2022-12-11T22:47:19.536Z,66.60
2022-12-11T22:49:46.777Z,58.93
2022-12-11T22:52:13.567Z,57.00
2022-12-11T22:54:42.046Z,58.10
2022-12-11T22:57:09.098Z,62.07
2022-12-11T22:59:36.636Z,56.13
2022-12-11T23:02:03.897Z,53.87
2022-12-11T23:04:30.773Z,56.63
2022-12-11T23:06:58.073Z,58.37
2022-12-11T23:09:25.291Z,57.17
2022-12-11T23:11:52.208Z,56.63
2022-12-11T23:14:19.122Z,70.30
2022-12-11T23:16:46.002Z,71.40
2022-12-11T23:19:13.404Z,64.50
2022-12-11T23:21:40.359Z,56.83
2022-12-11T23:24:07.667Z,62.30
2022-12-11T23:26:34.804Z,52.47
2022-12-11T23:29:02.910Z,57.90
2022-12-11T23:31:30.388Z,53.00
2022-12-11T23:33:57.601Z,57.93
2022-12-11T23:36:25.900Z,53.53
2022-12-11T23:38:54.910Z,69.17
2022-12-11T23:41:22.893Z,63.83
2022-12-11T23:43:49.737Z,56.63
2022-12-11T23:46:20.900Z,51.57
2022-12-11T23:48:48.408Z,53.03
2022-12-11T23:51:17.482Z,57.80
2022-12-11T23:53:44.665Z,58.07
2022-12-11T23:56:18.198Z,51.20
2022-12-11T23:58:45.462Z,60.87
